Warning: Javascript must be enabled to use all the features on this page!

Page Loading - Please Wait...

Click to hideNews Bulletins
  • Data formats changed in August 2016, and additional water-data changes will be coming through 2017. Read more here
  • Full News RSS icon

USGS 04189260 Blanchard River at Ottawa OH


Click to hidestation-specific text
Station operated in cooperation with the Village of Ottawa and the National Streamflow Information Program.
 04189260 Blanchard River at Ottawa, OH
 LOCATION.--Lat 41°01'01", long 84°02'49", Putnam County, OH, Hydrologic 
     Unit 04100008, on right bank at downstream side of Oak Street, 200 ft. upstream 
     of B&O railroad bridge, 800 ft. upstream of SR65 bridge, 1,200 ft. southeast of 
     intersection of SR65 and US RT224 in the village of Ottawa, OH.
 DRAINAGE AREA.--628 mi2.
 PERIOD OF RECORD.--October 2009 to current water year.
Want to learn more about areas near this gage that are inundated during flooding? See the USGS flood-inundation mapper.

Boating safety tips
Available Parameters Available Period
All 2 Available Parameters for this site
00060 Discharge 2009-10-01  2016-10-27
00065 Gage height 2016-06-29  2016-10-27

Graph w/ stats
Graph w/o stats
Graph w/ (up to 3) parms
Days  (7)

  -- or --
Begin date

End date

Summary of all available data for this site
Instantaneous-data availability statement
Gage height, feet
TIMEOct 20Oct 21Oct 22Oct 23Oct 24Oct 25Oct 26Oct 27
00:00 EDT4.85P  5.06P  6.01P  6.32P  6.76P  6.07P  5.54P  5.30P  
00:30 EDT4.85P  5.06P  6.07P  6.32P  6.75P  6.05P  5.54P  5.29P  
01:00 EDT4.85P  5.06P  6.13P  6.31P  6.74P  6.04P  5.53P  5.29P  
01:30 EDT4.85P  5.05P  6.19P  6.32P  6.73P  6.03P  5.52P  5.29P  
02:00 EDT4.86P  5.06P  6.24P  6.32P  6.72P  6.01P  5.51P  5.28P  
02:30 EDT4.86P  5.05P  6.29P  6.33P  6.70P  6.00P  5.50P  5.28P  
03:00 EDT4.87P  5.05P  6.32P  6.33P  6.70P  5.99P  5.50P  5.28P  
03:30 EDT4.89P  5.05P  6.36P  6.34P  6.68P  5.97P  5.49P  5.28P  
04:00 EDT4.92P  5.05P  6.40P  6.35P  6.67P  5.96P  5.49P  5.27P  
04:30 EDT4.93P  5.05P  6.42P  6.37P  6.66P  5.95P  5.48P  5.27P  
05:00 EDT4.95P  5.05P  6.45P  6.37P  6.65P  5.94P  5.48P  5.27P  
05:30 EDT4.95P  5.06P  6.46P  6.39P  6.64P  5.92P  5.47P  5.27P  
06:00 EDT4.95P  5.06P  6.48P  6.41P  6.62P  5.91P  5.47P  5.26P  
06:30 EDT4.94P  5.06P  6.49P  6.43P  6.61P  5.89P  5.46P  5.26P  
07:00 EDT4.93P  5.07P  6.51P  6.45P  6.59P  5.88P  5.45P  5.26P  
07:30 EDT4.93P  5.07P  6.51P  6.47P  6.57P  5.87P  5.44P  5.26P  
08:00 EDT4.92P  5.07P  6.52P  6.49P  6.56P  5.86P  5.44P  5.25P  
08:30 EDT4.92P  5.07P  6.52P  6.51P  6.54P  5.84P  5.43P  5.25P  
09:00 EDT4.92P  5.07P  6.52P  6.53P  6.53P  5.83P  5.43P  5.25P  
09:30 EDT4.92P  5.07P  6.53P  6.55P  6.51P  5.82P  5.43P  5.24P  
10:00 EDT4.91P  5.06P  6.52P  6.58P  6.50P  5.80P  5.42P  5.25P  
10:30 EDT4.92P  5.06P  6.52P  6.60P  6.48P  5.79P  5.42P  5.24P  
11:00 EDT4.91P  5.06P  6.52P  6.62P  6.46P  5.78P  5.41P  5.24P  
11:30 EDT4.91P  5.06P  6.51P  6.64P  6.45P  5.77P  5.41P  5.23P  
12:00 EDT4.92P  5.07P  6.50P  6.66P  6.44P  5.76P  5.40P  5.23P  
12:30 EDT4.92P  5.07P  6.49P  6.68P  6.42P  5.75P  5.40P  5.23P  
13:00 EDT4.93P  5.07P  6.48P  6.69P  6.40P  5.73P  5.39P  5.23P  
13:30 EDT4.92P  5.07P  6.48P  6.71P  6.39P  5.72P  5.39P  5.22P  
14:00 EDT4.93P  5.08P  6.46P  6.72P  6.37P  5.71P  5.38P  5.22P  
14:30 EDT4.94P  5.10P  6.46P  6.73P  6.36P  5.70P  5.38P  5.22P  
15:00 EDT4.94P  5.12P  6.45P  6.75P  6.34P  5.69P  5.38P  5.21P  
15:30 EDT4.94P  5.15P  6.44P  6.75P  6.32P  5.68P  5.37P  5.21P  
16:00 EDT4.95P  5.19P  6.43P  6.77P  6.31P  5.67P  5.36P  5.21P  
16:30 EDT4.96P  5.23P  6.43P  6.77P  6.29P  5.66P  5.36P  5.21P  
17:00 EDT4.97P  5.27P  6.42P  6.78P  6.27P  5.65P  5.35P   
17:30 EDT4.98P  5.32P  6.41P  6.79P  6.26P  5.65P  5.35P   
18:00 EDT4.99P  5.37P  6.40P  6.79P  6.24P  5.63P  5.34P   
18:30 EDT4.99P  5.41P  6.39P  6.80P  6.23P  5.62P  5.34P   
19:00 EDT5.00P  5.46P  6.39P  6.80P  6.21P  5.62P  5.34P   
19:30 EDT5.01P  5.51P  6.38P  6.80P  6.20P  5.61P  5.33P   
20:00 EDT5.01P  5.56P  6.37P  6.80P  6.18P  5.60P  5.33P   
20:30 EDT5.02P  5.61P  6.36P  6.80P  6.17P  5.59P  5.32P   
21:00 EDT5.03P  5.66P  6.35P  6.80P  6.15P  5.58P  5.32P   
21:30 EDT5.04P  5.71P  6.34P  6.79P  6.14P  5.58P  5.31P   
22:00 EDT5.06P  5.78P  6.34P  6.78P  6.12P  5.57P  5.31P   
22:30 EDT5.07P  5.83P  6.33P  6.78P  6.10P  5.56P  5.31P   
23:00 EDT5.07P  5.89P  6.32P  6.77P  6.09P  5.55P  5.30P   
23:30 EDT5.07P  5.95P  6.32P  6.77P  6.08P  5.55P  5.30P   

  P  Provisional data subject to revision.